Time;durP1;ratioP1;P1;durP2;ratioP2;P2;SDS_P1;SDS_P2;PMS_P1;PMS_P2;Temp;Humidity;BMP_temperature;BMP_pressure;BME280_temperature;BME280_humidity;BME280_pressure;Samples;Min_cycle;Max_cycle;Signal;HPM_P1;HPM_P2
2022/01/08 00:02:05;;;;;;;;;0.00;0.00;;;;;6.22;76.90;101252.72;5067502;27;45475;-71
2022/01/08 00:04:30;;;;;;;;;0.00;0.00;;;;;6.13;76.95;101236.34;5044946;28;45503;-71
2022/01/08 00:06:56;;;;;;;;;0.00;0.00;;;;;6.12;77.05;101245.06;5046518;28;45517;-71
2022/01/08 00:09:22;;;;;;;;;0.00;0.00;;;;;6.07;77.14;101258.19;5047238;28;45827;-71
2022/01/08 00:11:47;;;;;;;;;1.00;0.00;;;;;6.03;77.33;101253.03;5056902;28;45460;-71
2022/01/08 00:14:14;;;;;;;;;0.00;0.00;;;;;5.97;76.90;101267.91;5060193;28;45436;-71
2022/01/08 00:16:40;;;;;;;;;1.00;0.00;;;;;5.91;76.73;101268.00;5054003;28;45413;-71
2022/01/08 00:19:05;;;;;;;;;0.00;0.00;;;;;5.83;77.18;101269.81;5057251;28;50552;-71
2022/01/08 00:21:30;;;;;;;;;0.00;0.00;;;;;5.84;77.15;101283.72;5057601;28;45743;-71
2022/01/08 00:23:56;;;;;;;;;0.00;0.00;;;;;5.85;77.27;101285.47;5051104;28;45417;-71
2022/01/08 00:26:21;;;;;;;;;0.00;0.00;;;;;5.85;77.59;101288.09;5058086;28;45337;-71
2022/01/08 00:28:47;;;;;;;;;0.00;0.00;;;;;5.79;77.64;101291.59;5052926;28;45443;-71
2022/01/08 00:31:12;;;;;;;;;0.00;0.00;;;;;5.79;77.43;101295.97;5067676;28;45469;-71
2022/01/08 00:33:38;;;;;;;;;1.00;0.00;;;;;5.75;77.22;101309.06;5053143;28;45514;-71
2022/01/08 00:36:07;;;;;;;;;0.00;0.00;;;;;5.73;77.66;101317.78;5054301;28;45655;-71
2022/01/08 00:38:33;;;;;;;;;0.00;0.00;;;;;5.70;77.97;101318.69;5066433;28;47577;-71
2022/01/08 00:40:59;;;;;;;;;0.00;0.00;;;;;5.68;78.08;101314.38;5053831;28;45919;-71
2022/01/08 00:43:24;;;;;;;;;0.00;0.00;;;;;5.58;77.79;101304.94;5048652;28;45396;-71
2022/01/08 00:45:50;;;;;;;;;0.00;0.00;;;;;5.61;78.13;101316.22;5052850;28;45319;-71
2022/01/08 00:48:15;;;;;;;;;0.00;0.00;;;;;5.59;78.10;101325.81;5050237;28;45665;-70
2022/01/08 00:50:40;;;;;;;;;0.00;0.00;;;;;5.46;78.57;101309.44;5066421;28;45557;-70
2022/01/08 00:53:06;;;;;;;;;0.00;0.00;;;;;5.48;78.37;101320.72;5034440;28;45333;-72
2022/01/08 00:55:31;;;;;;;;;0.75;0.00;;;;;5.44;78.38;101339.91;5052687;28;45473;-72
2022/01/08 00:57:57;;;;;;;;;1.50;0.00;;;;;5.42;78.31;101336.44;5050489;28;46759;-71
2022/01/08 01:00:22;;;;;;;;;0.00;0.00;;;;;5.48;78.43;101346.81;5057269;28;45296;-72
2022/01/08 01:02:47;;;;;;;;;0.00;0.00;;;;;5.47;78.65;101357.22;5061466;28;45354;-70
2022/01/08 01:05:13;;;;;;;;;0.00;0.00;;;;;5.45;78.93;101362.47;5052166;28;45497;-71
2022/01/08 01:07:38;;;;;;;;;1.00;0.00;;;;;5.44;78.54;101370.31;5050700;28;46032;-72
2022/01/08 01:10:06;;;;;;;;;0.00;0.00;;;;;5.43;78.95;101368.59;5059194;28;45482;-71
2022/01/08 01:12:31;;;;;;;;;0.00;0.00;;;;;5.41;78.69;101367.72;5060029;28;45561;-70
2022/01/08 01:14:57;;;;;;;;;0.00;0.00;;;;;5.40;79.20;101371.22;5060384;28;45463;-72
2022/01/08 01:17:22;;;;;;;;;0.00;0.00;;;;;5.37;79.33;101363.44;5052155;28;45574;-72
2022/01/08 01:19:49;;;;;;;;;0.00;0.00;;;;;5.32;79.06;101363.47;5064508;28;45532;-72
2022/01/08 01:22:18;;;;;;;;;1.25;0.00;;;;;5.36;78.97;101367.78;5041534;28;46217;-72
2022/01/08 01:24:43;;;;;;;;;1.00;0.00;;;;;5.28;79.36;101354.00;5052259;28;45467;-72
2022/01/08 01:47:00;;;;;;;;;0.00;0.00;;;;;5.17;79.59;101354.09;4992276;28;45357;-72
2022/01/08 01:49:09;;;;;;;;;0.00;0.00;;;;;5.19;79.82;101352.34;4999683;28;45902;-72
2022/01/08 01:51:34;;;;;;;;;0.50;0.00;;;;;5.20;80.12;101358.41;4998598;28;45766;-72
2022/01/08 01:53:59;;;;;;;;;0.00;0.00;;;;;5.18;79.85;101354.97;4998545;28;45742;-72
2022/01/08 01:56:25;;;;;;;;;0.00;0.00;;;;;5.19;79.83;101367.13;4991497;28;45408;-72
2022/01/08 01:58:50;;;;;;;;;0.00;0.00;;;;;5.13;79.84;101352.41;5007094;28;45573;-72
2022/01/08 02:01:16;;;;;;;;;0.00;0.00;;;;;5.18;79.87;101375.81;5004973;28;45516;-72
2022/01/08 02:03:42;;;;;;;;;0.00;0.00;;;;;5.15;79.94;101379.31;5002593;28;45444;-72
2022/01/08 02:06:08;;;;;;;;;1.50;0.00;;;;;5.14;79.79;101377.56;5013867;28;45441;-72
2022/01/08 02:08:35;;;;;;;;;0.00;0.00;;;;;5.13;79.60;101380.22;5044428;28;46381;-72
2022/01/08 02:11:00;;;;;;;;;0.00;0.00;;;;;5.04;79.69;101349.91;5051890;28;45400;-72
2022/01/08 02:13:27;;;;;;;;;0.00;0.00;;;;;5.13;79.77;101368.03;5053912;28;45281;-72
2022/01/08 02:15:55;;;;;;;;;1.00;0.25;;;;;5.12;80.12;101360.25;5051486;28;45578;-72
2022/01/08 02:18:23;;;;;;;;;0.00;0.00;;;;;5.11;80.06;101366.31;5051642;28;45433;-72
2022/01/08 02:20:48;;;;;;;;;0.00;0.00;;;;;5.07;79.93;101365.50;5057723;28;45959;-72
2022/01/08 02:23:13;;;;;;;;;0.00;0.00;;;;;5.05;79.41;101372.44;5065120;28;45537;-70
2022/01/08 02:25:39;;;;;;;;;0.00;0.00;;;;;5.01;79.54;101375.09;5049725;28;45398;-72
2022/01/08 02:28:05;;;;;;;;;0.00;0.00;;;;;5.01;79.95;101385.53;5054184;28;46266;-72
2022/01/08 02:30:31;;;;;;;;;0.00;0.00;;;;;5.00;79.67;101383.78;5056483;28;45823;-72
2022/01/08 02:32:56;;;;;;;;;1.00;1.00;;;;;4.96;79.78;101389.06;5053615;28;45509;-72
2022/01/08 02:35:22;;;;;;;;;1.25;1.25;;;;;4.95;79.92;101384.69;5055524;28;45396;-72
2022/01/08 02:37:49;;;;;;;;;0.25;0.25;;;;;4.93;79.92;101399.50;5052247;28;47152;-72
2022/01/08 02:40:15;;;;;;;;;1.00;0.00;;;;;4.84;80.09;101380.47;5068701;28;45799;-72
2022/01/08 02:42:50;;;;;;;;;1.00;0.00;;;;;4.90;79.91;101386.47;5049092;28;45568;-71
2022/01/08 02:45:16;;;;;;;;;1.75;1.50;;;;;4.89;80.25;101389.09;5049009;28;45514;-71
2022/01/08 02:47:41;;;;;;;;;0.00;0.00;;;;;4.90;79.98;101402.09;5052422;28;45513;-71
2022/01/08 02:50:07;;;;;;;;;0.00;0.00;;;;;4.85;79.82;101395.22;5054294;28;45440;-71
2022/01/08 02:52:33;;;;;;;;;0.00;0.00;;;;;4.86;79.90;101390.00;5052075;28;45490;-71
2022/01/08 02:54:58;;;;;;;;;0.00;0.00;;;;;4.82;79.97;101377.88;5052767;28;45586;-71
2022/01/08 02:57:23;;;;;;;;;0.00;0.00;;;;;4.86;80.16;101377.00;5035101;28;47085;-71
2022/01/08 02:59:49;;;;;;;;;1.00;0.00;;;;;4.86;80.11;101382.19;5049452;28;45612;-71
2022/01/08 03:02:14;;;;;;;;;0.00;0.00;;;;;4.87;80.19;101396.09;5049112;28;45357;-71
2022/01/08 03:04:40;;;;;;;;;1.00;0.00;;;;;4.86;80.11;101410.84;5060002;28;45451;-71
2022/01/08 03:07:05;;;;;;;;;2.00;0.75;;;;;4.90;80.31;101422.94;5055516;28;46786;-71
2022/01/08 03:09:33;;;;;;;;;0.75;0.00;;;;;4.88;80.27;101405.63;5059628;28;45455;-71
2022/01/08 03:11:59;;;;;;;;;1.50;1.00;;;;;4.94;80.18;101413.38;5061902;28;45368;-71
2022/01/08 03:14:24;;;;;;;;;0.00;0.00;;;;;4.90;80.59;101409.06;5054307;28;45589;-71
2022/01/08 03:16:49;;;;;;;;;0.00;0.00;;;;;4.93;80.46;101411.66;5054267;28;48925;-71
2022/01/08 03:19:15;;;;;;;;;0.00;0.00;;;;;4.95;80.41;101402.94;5052532;28;49991;-71
2022/01/08 03:21:44;;;;;;;;;1.00;1.00;;;;;4.96;80.51;101398.63;5052853;28;45381;-71
2022/01/08 03:24:16;;;;;;;;;2.00;0.00;;;;;4.97;80.43;101400.34;5048056;28;45552;-71
2022/01/08 03:26:41;;;;;;;;;0.75;0.75;;;;;4.98;80.17;101391.63;5042303;28;46060;-71
2022/01/08 03:29:08;;;;;;;;;1.25;1.00;;;;;5.00;80.01;101383.78;5053702;28;50798;-71
2022/01/08 03:31:33;;;;;;;;;0.50;0.00;;;;;5.02;79.98;101387.28;5055565;28;45459;-71
2022/01/08 03:33:58;;;;;;;;;0.75;0.75;;;;;4.96;80.07;101378.63;5054671;28;45491;-71
2022/01/08 03:36:24;;;;;;;;;2.00;0.00;;;;;4.93;79.90;101367.38;5050677;28;45473;-71
2022/01/08 03:38:51;;;;;;;;;0.00;0.00;;;;;4.93;80.34;101369.97;5053489;28;45309;-71
2022/01/08 03:41:17;;;;;;;;;0.00;0.00;;;;;4.93;80.38;101389.06;5066838;28;45301;-71
2022/01/08 03:43:42;;;;;;;;;0.00;0.00;;;;;4.90;80.33;101385.63;5054141;28;45395;-71
2022/01/08 03:46:10;;;;;;;;;0.00;0.00;;;;;4.90;80.42;101396.03;5055503;28;46165;-71
2022/01/08 03:48:46;;;;;;;;;0.00;0.00;;;;;4.87;80.53;101401.28;5053561;28;45802;-71
2022/01/08 03:51:14;;;;;;;;;2.00;0.00;;;;;4.83;80.68;101405.66;5056847;28;45364;-71
2022/01/08 03:53:40;;;;;;;;;0.00;0.00;;;;;4.81;80.69;101410.03;5051273;28;45468;-71
2022/01/08 03:56:05;;;;;;;;;2.00;1.00;;;;;4.81;80.63;101414.38;5053635;28;45379;-71
2022/01/08 03:58:31;;;;;;;;;2.00;0.00;;;;;4.75;80.45;101403.97;5055346;28;45360;-71
2022/01/08 04:00:56;;;;;;;;;4.00;1.25;;;;;4.53;80.79;101366.84;5053633;28;45598;-71
2022/01/08 04:03:21;;;;;;;;;0.25;0.25;;;;;4.74;80.95;101397.06;5052939;28;45353;-71
2022/01/08 04:05:48;;;;;;;;;1.25;1.00;;;;;4.70;80.74;101391.03;5052435;28;47212;-71
2022/01/08 04:08:18;;;;;;;;;0.50;0.50;;;;;4.68;80.67;101391.03;5052182;28;45984;-71
2022/01/08 04:10:43;;;;;;;;;0.75;0.00;;;;;4.66;80.91;101384.97;5051084;28;45442;-71
2022/01/08 04:13:15;;;;;;;;;0.00;0.00;;;;;4.63;81.24;101384.13;5067699;28;45395;-71
2022/01/08 04:15:44;;;;;;;;;0.00;0.00;;;;;4.63;81.05;101391.94;5057795;28;45447;-71
2022/01/08 04:18:10;;;;;;;;;3.75;1.00;;;;;4.57;81.29;101403.25;5059530;28;45505;-71
2022/01/08 04:20:47;;;;;;;;;2.00;1.00;;;;;4.59;80.94;101403.25;5056359;28;45506;-71
2022/01/08 04:23:14;;;;;;;;;1.00;0.00;;;;;4.59;81.34;101405.84;5052935;28;45405;-71
2022/01/08 04:25:39;;;;;;;;;0.00;0.00;;;;;4.58;81.34;101411.94;5054438;28;46168;-71
2022/01/08 04:28:05;;;;;;;;;1.00;0.00;;;;;4.58;81.31;101410.19;5056949;28;47464;-71
2022/01/08 04:30:30;;;;;;;;;2.00;0.50;;;;;4.60;81.40;101403.25;5056479;28;48513;-71
2022/01/08 04:32:55;;;;;;;;;4.00;1.00;;;;;4.58;81.53;101397.16;5053171;28;46032;-71
2022/01/08 04:35:20;;;;;;;;;1.67;1.00;;;;;4.62;81.71;101396.28;5052846;28;50714;-71
2022/01/08 04:37:46;;;;;;;;;0.00;0.00;;;;;4.63;81.58;101394.53;5063624;28;45447;-71
2022/01/08 04:40:11;;;;;;;;;0.00;0.00;;;;;4.66;81.55;101391.91;5063257;28;45480;-71
2022/01/08 04:42:37;;;;;;;;;1.75;0.25;;;;;4.70;81.52;101399.69;5054843;28;45526;-71
2022/01/08 04:45:02;;;;;;;;;0.75;0.75;;;;;4.74;81.30;101392.69;5046473;28;46143;-71
2022/01/08 04:47:28;;;;;;;;;1.00;1.00;;;;;4.78;81.24;101393.56;5052758;28;45439;-71
2022/01/08 04:49:53;;;;;;;;;1.00;1.00;;;;;4.78;81.15;101377.94;5067504;28;45868;-71
2022/01/08 04:52:19;;;;;;;;;0.50;0.50;;;;;4.87;81.33;101401.28;5061420;28;45445;-71
2022/01/08 04:54:44;;;;;;;;;0.00;0.00;;;;;4.88;81.35;101396.06;5053146;28;46293;-71
2022/01/08 04:57:09;;;;;;;;;3.00;2.00;;;;;4.89;81.08;101407.34;5052865;28;45457;-71
2022/01/08 04:59:34;;;;;;;;;4.00;1.25;;;;;4.87;80.89;101417.78;5057431;28;45417;-71
2022/01/08 05:02:00;;;;;;;;;2.00;2.00;;;;;4.86;80.96;101430.81;5051442;28;45842;-71
2022/01/08 05:04:27;;;;;;;;;1.00;1.00;;;;;4.82;80.66;101432.56;5054215;28;56224;-71
2022/01/08 05:06:52;;;;;;;;;2.50;1.00;;;;;4.78;80.91;101430.88;5052377;28;45857;-71
2022/01/08 05:09:17;;;;;;;;;2.00;2.00;;;;;4.72;80.69;101423.97;5053222;28;45614;-71
2022/01/08 05:11:43;;;;;;;;;6.33;2.00;;;;;4.69;81.01;101420.50;5062870;27;45635;-71
2022/01/08 05:14:10;;;;;;;;;1.00;1.00;;;;;4.68;81.28;101424.00;5053090;28;46048;-71
2022/01/08 05:16:35;;;;;;;;;3.50;2.00;;;;;4.66;81.35;101423.16;5033481;28;45373;-71
2022/01/08 05:19:01;;;;;;;;;4.50;1.00;;;;;4.67;81.21;101437.91;5050665;28;45461;-71
2022/01/08 05:21:30;;;;;;;;;2.00;2.00;;;;;4.72;81.92;101436.13;5055853;28;45486;-71
2022/01/08 05:23:57;;;;;;;;;4.00;1.50;;;;;4.84;81.80;101428.22;5060007;28;46130;-71
2022/01/08 05:26:25;;;;;;;;;3.25;1.00;;;;;4.92;81.72;101420.34;5052496;28;45411;-71
2022/01/08 05:28:51;;;;;;;;;0.75;0.75;;;;;5.01;81.67;101427.19;5052764;28;45426;-71
2022/01/08 05:31:18;;;;;;;;;1.00;0.50;;;;;5.06;81.36;101417.59;5054802;28;45381;-71
2022/01/08 05:33:44;;;;;;;;;1.00;1.00;;;;;5.12;81.68;101425.38;5049827;28;45460;-71
2022/01/08 05:36:09;;;;;;;;;2.00;1.00;;;;;5.18;81.61;101430.53;5052207;28;45487;-71
2022/01/08 05:38:35;;;;;;;;;2.00;2.00;;;;;5.23;81.16;101418.31;5052177;28;45406;-71
2022/01/08 05:41:00;;;;;;;;;3.75;2.50;;;;;5.29;81.10;101413.03;5052313;28;45435;-71
2022/01/08 05:43:26;;;;;;;;;1.75;1.75;;;;;5.37;81.39;101406.00;5053993;28;45370;-72
2022/01/08 05:45:51;;;;;;;;;1.00;1.00;;;;;5.43;81.14;101402.47;5045221;28;45507;-72
2022/01/08 05:48:17;;;;;;;;;4.25;1.00;;;;;5.47;81.00;101397.19;5045112;28;45284;-72
2022/01/08 05:50:42;;;;;;;;;1.00;1.00;;;;;5.50;80.95;101397.16;5057747;28;45398;-72
2022/01/08 05:53:07;;;;;;;;;3.50;1.00;;;;;5.52;80.65;101394.53;5051584;28;50532;-70
2022/01/08 05:55:33;;;;;;;;;4.00;1.00;;;;;5.56;80.89;101406.66;5055777;28;45333;-72
2022/01/08 05:57:58;;;;;;;;;3.50;3.50;;;;;5.51;80.66;101385.00;5056118;28;45312;-71
2022/01/08 06:00:24;;;;;;;;;1.25;1.25;;;;;5.54;80.76;101384.97;5057389;28;45387;-72
2022/01/08 06:02:49;;;;;;;;;2.00;2.00;;;;;5.54;80.67;101379.75;5049531;28;46021;-72
2022/01/08 06:05:14;;;;;;;;;1.50;1.00;;;;;5.58;80.65;101383.16;5055594;28;45337;-72
2022/01/08 06:07:40;;;;;;;;;2.00;0.50;;;;;5.56;80.65;101377.97;5055618;28;45427;-72
2022/01/08 06:10:06;;;;;;;;;3.25;1.75;;;;;5.56;81.20;101384.94;5054156;28;45562;-72
2022/01/08 06:12:31;;;;;;;;;1.00;1.00;;;;;5.59;81.00;101393.59;5053481;28;45486;-72
2022/01/08 06:14:57;;;;;;;;;0.50;0.50;;;;;5.61;81.22;101389.22;5055114;28;45425;-72
2022/01/08 06:17:22;;;;;;;;;2.00;0.00;;;;;5.64;80.75;101397.00;5055246;28;45459;-72
2022/01/08 06:19:47;;;;;;;;;1.00;1.00;;;;;5.68;80.76;101393.47;5061284;28;45500;-72
2022/01/08 06:22:14;;;;;;;;;4.00;0.00;;;;;5.73;80.91;101403.84;5064584;28;45369;-72
2022/01/08 06:24:39;;;;;;;;;1.25;1.00;;;;;5.75;80.77;101399.50;5056887;28;45879;-71
2022/01/08 06:27:05;;;;;;;;;1.00;1.00;;;;;5.72;81.28;101384.72;5054286;28;45634;-72
2022/01/08 06:29:30;;;;;;;;;0.75;0.75;;;;;5.79;80.87;101377.69;5058020;28;45376;-72
2022/01/08 06:31:55;;;;;;;;;3.50;1.75;;;;;5.80;80.90;101370.75;5054727;28;45339;-72
2022/01/08 06:34:21;;;;;;;;;1.75;1.75;;;;;5.80;80.57;101360.31;5056707;28;45340;-72
2022/01/08 06:36:47;;;;;;;;;8.75;3.00;;;;;5.72;80.75;101356.03;5054919;28;45600;-72
2022/01/08 06:39:14;;;;;;;;;2.50;1.00;;;;;5.70;80.85;101365.63;5056834;28;45641;-72
2022/01/08 06:41:39;;;;;;;;;1.75;1.75;;;;;5.64;80.90;101375.28;5061649;28;45310;-72
2022/01/08 06:44:05;;;;;;;;;1.50;1.00;;;;;5.63;81.43;101368.31;5054842;28;45798;-72
2022/01/08 06:46:30;;;;;;;;;2.00;2.00;;;;;5.66;81.43;101373.53;5056799;28;45541;-72
2022/01/08 06:48:56;;;;;;;;;3.50;1.25;;;;;5.69;81.47;101370.84;5054302;28;45360;-72
2022/01/08 06:51:21;;;;;;;;;2.50;1.25;;;;;5.74;81.46;101367.34;5055781;27;46449;-72
2022/01/08 06:53:46;;;;;;;;;1.00;1.00;;;;;5.72;81.41;101350.81;5062371;28;45344;-72
2022/01/08 06:56:12;;;;;;;;;4.75;1.00;;;;;5.72;81.32;101355.19;5054540;28;45355;-72
2022/01/08 06:58:37;;;;;;;;;1.75;1.50;;;;;5.74;81.54;101356.91;5067547;28;45479;-72
2022/01/08 07:01:03;;;;;;;;;1.50;1.00;;;;;5.77;81.37;101361.19;5064476;28;45418;-71
2022/01/08 07:03:28;;;;;;;;;3.50;1.50;;;;;5.82;81.56;101361.16;5057257;27;45567;-71
2022/01/08 07:05:53;;;;;;;;;4.00;1.00;;;;;5.84;81.05;101355.00;5057354;28;45685;-71
2022/01/08 07:08:18;;;;;;;;;5.75;1.00;;;;;5.81;81.59;101355.06;5057117;28;45347;-72
2022/01/08 07:10:44;;;;;;;;;5.50;2.50;;;;;5.94;81.52;101361.00;5068418;28;45478;-72
2022/01/08 07:13:09;;;;;;;;;4.25;2.00;;;;;5.95;81.15;101357.50;5058375;28;52627;-72
2022/01/08 07:15:35;;;;;;;;;7.50;4.00;;;;;6.01;81.42;101354.84;5050982;28;45432;-72
2022/01/08 07:18:00;;;;;;;;;1.25;1.00;;;;;6.04;81.16;101353.91;5054026;28;46203;-72
2022/01/08 07:20:25;;;;;;;;;3.50;1.00;;;;;6.06;81.07;101358.25;5054946;28;45971;-71
2022/01/08 07:22:51;;;;;;;;;0.00;0.00;;;;;6.07;81.22;101343.44;5052720;28;45478;-72
2022/01/08 07:25:16;;;;;;;;;4.00;1.00;;;;;6.10;81.11;101348.59;5048190;28;46765;-72
2022/01/08 07:27:43;;;;;;;;;1.00;1.00;;;;;6.10;80.92;101331.19;5049865;28;45431;-72
2022/01/08 07:30:09;;;;;;;;;1.75;1.50;;;;;6.14;81.33;101332.88;5042318;28;46179;-72
2022/01/08 07:32:43;;;;;;;;;1.50;1.00;;;;;6.17;80.99;101334.59;5046165;28;45891;-72
2022/01/08 07:35:10;;;;;;;;;1.00;1.00;;;;;6.18;81.23;101325.88;5053173;28;45621;-72
2022/01/08 07:37:35;;;;;;;;;0.25;0.25;;;;;6.16;81.11;101320.69;5039014;28;45478;-72
2022/01/08 07:40:01;;;;;;;;;4.00;0.00;;;;;6.15;81.06;101320.69;5041653;28;46341;-72
2022/01/08 07:42:26;;;;;;;;;2.00;1.00;;;;;6.11;81.08;101322.50;5039317;28;45549;-72
2022/01/08 07:44:52;;;;;;;;;0.00;0.00;;;;;6.09;81.48;101299.91;5041908;28;45538;-72
2022/01/08 07:47:17;;;;;;;;;3.00;1.25;;;;;6.08;81.24;101295.59;5049896;28;45775;-72
2022/01/08 07:49:43;;;;;;;;;1.25;0.00;;;;;6.13;81.24;101301.59;5047515;28;45555;-75
2022/01/08 07:52:08;;;;;;;;;0.25;0.25;;;;;6.12;81.53;101298.13;5046668;28;45449;-72
2022/01/08 07:54:33;;;;;;;;;0.00;0.00;;;;;6.26;81.49;101308.31;5051162;28;45430;-71
2022/01/08 07:56:59;;;;;;;;;5.00;0.75;;;;;6.27;81.40;101303.09;5050366;28;45676;-72
2022/01/08 07:59:24;;;;;;;;;0.00;0.00;;;;;6.31;81.51;101297.81;5050546;28;46015;-73
2022/01/08 08:01:49;;;;;;;;;0.25;0.00;;;;;6.41;81.33;101300.25;5047780;28;58089;-72
2022/01/08 08:04:15;;;;;;;;;1.25;0.75;;;;;6.40;81.47;101302.91;5048358;28;45515;-73
2022/01/08 08:06:45;;;;;;;;;1.00;1.00;;;;;6.48;80.97;101301.03;5042186;28;45454;-73
2022/01/08 08:09:10;;;;;;;;;3.50;1.00;;;;;6.52;81.01;101293.13;5040721;28;45483;-73
2022/01/08 08:11:36;;;;;;;;;2.00;1.00;;;;;6.53;81.09;101275.69;5041660;28;45526;-73
2022/01/08 08:14:01;;;;;;;;;3.00;2.50;;;;;6.59;81.31;101288.66;5050702;28;45420;-73
2022/01/08 08:16:26;;;;;;;;;0.75;0.50;;;;;6.61;81.46;101272.94;5039239;28;45600;-73
2022/01/08 08:18:52;;;;;;;;;1.00;1.00;;;;;6.66;81.53;101276.34;5048852;28;46313;-72
2022/01/08 08:21:17;;;;;;;;;2.25;1.75;;;;;6.68;81.67;101267.59;5047202;28;45601;-72
2022/01/08 08:23:42;;;;;;;;;2.00;0.00;;;;;6.76;81.43;101259.59;5054085;28;45299;-74
2022/01/08 08:26:08;;;;;;;;;2.75;1.00;;;;;6.85;81.78;101264.66;5059157;28;45331;-72
2022/01/08 08:28:33;;;;;;;;;1.00;1.00;;;;;6.87;81.84;101246.34;5053151;28;50055;-72
2022/01/08 08:30:58;;;;;;;;;12.00;2.00;;;;;6.92;81.50;101250.56;5052464;28;45518;-71
2022/01/08 08:33:24;;;;;;;;;2.50;0.50;;;;;6.94;82.21;101248.81;5057686;28;45493;-72
2022/01/08 08:35:49;;;;;;;;;8.00;1.75;;;;;6.88;82.17;101224.53;5051678;28;45446;-72
2022/01/08 08:38:14;;;;;;;;;10.75;7.00;;;;;7.06;81.61;101247.69;5047592;28;45444;-72
2022/01/08 08:40:40;;;;;;;;;6.75;6.75;;;;;7.04;82.06;101233.78;5046663;28;45878;-72
2022/01/08 08:43:06;;;;;;;;;1.75;1.75;;;;;7.15;81.57;101244.00;5055284;28;47831;-72
2022/01/08 08:45:31;;;;;;;;;5.00;1.75;;;;;7.09;81.87;101223.22;5058514;28;45636;-72
2022/01/08 08:47:57;;;;;;;;;7.00;3.25;;;;;7.09;82.06;101215.41;5053913;28;45894;-72
2022/01/08 08:50:23;;;;;;;;;5.50;4.50;;;;;7.17;82.25;101230.03;5064093;28;45409;-72
2022/01/08 08:52:50;;;;;;;;;3.75;2.50;;;;;7.19;81.95;101219.53;5051263;28;45715;-72
2022/01/08 08:55:18;;;;;;;;;6.50;3.25;;;;;7.16;82.06;101207.41;5054898;28;45494;-72
2022/01/08 08:57:44;;;;;;;;;6.00;5.00;;;;;7.26;82.26;101214.16;5048844;28;46368;-73
2022/01/08 09:00:10;;;;;;;;;7.00;5.25;;;;;7.26;82.53;101211.56;5052447;28;46032;-73
2022/01/08 09:02:36;;;;;;;;;4.75;4.75;;;;;7.23;82.70;101209.00;5052981;28;45317;-72
2022/01/08 09:05:02;;;;;;;;;5.00;2.75;;;;;7.25;82.83;101203.72;5067005;27;45473;-72
2022/01/08 09:07:27;;;;;;;;;6.50;5.25;;;;;7.21;82.97;101197.72;5059285;28;46247;-72
2022/01/08 09:09:53;;;;;;;;;5.50;5.25;;;;;7.28;83.10;101204.53;5056595;28;45431;-72
2022/01/08 09:12:18;;;;;;;;;12.33;5.67;;;;;7.28;83.06;101201.91;5056352;28;45303;-72
2022/01/08 09:14:44;;;;;;;;;5.50;5.25;;;;;7.32;83.01;101205.31;5050672;28;45399;-72
2022/01/08 09:17:10;;;;;;;;;4.75;4.50;;;;;7.37;83.08;101203.47;5047580;28;45466;-72
2022/01/08 09:19:36;;;;;;;;;5.50;4.25;;;;;7.33;83.23;101191.34;5072617;28;45429;-72
2022/01/08 09:22:02;;;;;;;;;6.25;5.00;;;;;7.41;83.24;101202.47;5059054;28;45509;-72
2022/01/08 09:24:28;;;;;;;;;10.50;5.50;;;;;7.42;83.27;101188.53;5055788;28;45483;-72
2022/01/08 09:26:53;;;;;;;;;18.00;15.50;;;;;7.51;83.36;101185.69;5054358;28;45459;-72
2022/01/08 09:29:19;;;;;;;;;13.33;10.67;;;;;7.58;83.21;101176.81;5036000;28;54218;-72
2022/01/08 09:31:44;;;;;;;;;4.50;4.50;;;;;7.65;83.32;101159.22;5048552;28;45487;-72
2022/01/08 09:34:10;;;;;;;;;10.00;6.00;;;;;7.69;83.45;101153.03;5048214;28;45716;-72
2022/01/08 09:36:37;;;;;;;;;8.25;6.00;;;;;7.78;83.21;101159.81;5051777;28;46955;-73
2022/01/08 09:39:04;;;;;;;;;9.00;6.00;;;;;7.87;83.39;101169.16;5053658;28;45592;-72
2022/01/08 09:41:30;;;;;;;;;4.50;4.50;;;;;7.94;83.43;101166.38;5047893;28;45573;-72
2022/01/08 09:43:55;;;;;;;;;7.00;4.25;;;;;8.01;83.01;101170.53;5035079;28;45649;-71
2022/01/08 09:46:21;;;;;;;;;6.00;5.00;;;;;8.04;83.32;101151.28;5040299;28;62988;-71
2022/01/08 09:48:48;;;;;;;;;7.00;7.00;;;;;8.11;83.00;101148.47;5041287;28;45888;-73
2022/01/08 09:51:14;;;;;;;;;9.75;7.50;;;;;8.05;83.24;101137.31;5042966;28;45423;-73
2022/01/08 09:53:39;;;;;;;;;12.50;10.00;;;;;8.16;83.16;101152.72;5050803;28;45402;-73
2022/01/08 09:56:04;;;;;;;;;13.25;5.00;;;;;8.17;82.91;101136.97;5051263;28;45511;-72
2022/01/08 09:58:30;;;;;;;;;5.75;5.00;;;;;8.19;83.08;101134.31;5041531;28;45396;-75
2022/01/08 10:00:56;;;;;;;;;11.00;5.75;;;;;8.21;83.09;101128.13;5044246;28;45313;-72
2022/01/08 10:03:26;;;;;;;;;9.75;7.50;;;;;8.23;83.50;101128.94;5048685;28;45313;-75
2022/01/08 10:05:58;;;;;;;;;8.25;7.00;;;;;8.30;83.37;101124.38;5041806;28;45930;-72
2022/01/08 10:08:26;;;;;;;;;10.75;10.00;;;;;8.30;83.56;101112.19;5040756;28;48181;-70
2022/01/08 10:11:00;;;;;;;;;9.25;9.25;;;;;8.38;83.56;101108.53;5038156;28;45431;-73
2022/01/08 10:13:29;;;;;;;;;9.00;7.00;;;;;8.44;83.74;101103.09;5041538;28;45454;-72
2022/01/08 10:18:42;;;;;;;;;11.75;7.00;;;;;8.50;83.63;101067.09;5047327;28;45498;-72
2022/01/08 10:21:21;;;;;;;;;11.00;9.25;;;;;8.68;83.32;101088.44;5042293;28;45360;-72
2022/01/08 10:23:50;;;;;;;;;12.75;9.25;;;;;8.73;83.38;101081.31;5026922;28;45462;-71
2022/01/08 10:26:18;;;;;;;;;10.25;8.00;;;;;8.78;83.26;101077.66;5039442;28;45668;-70
2022/01/08 10:28:51;;;;;;;;;8.75;8.00;;;;;8.80;83.26;101069.72;5039349;28;46092;-69
2022/01/08 10:31:22;;;;;;;;;97.00;68.25;;;;;8.80;83.53;101070.59;5056194;28;45496;-70
2022/01/08 10:33:54;;;;;;;;;9.25;6.25;;;;;8.82;83.78;101063.56;5049213;28;45610;-70
2022/01/08 10:36:23;;;;;;;;;11.25;8.00;;;;;8.83;83.63;101056.56;5046307;28;46150;-70
2022/01/08 10:38:51;;;;;;;;;10.00;8.00;;;;;8.75;83.82;101051.53;5051086;28;45956;-70
2022/01/08 10:41:17;;;;;;;;;8.25;6.50;;;;;8.83;84.06;101053.94;5038404;28;45466;-71
2022/01/08 10:43:43;;;;;;;;;13.00;9.75;;;;;8.84;84.09;101043.38;5037668;28;45491;-70
2022/01/08 10:46:09;;;;;;;;;8.25;7.25;;;;;8.78;84.10;101034.88;5046108;28;45521;-70
2022/01/08 10:48:35;;;;;;;;;12.50;7.00;;;;;8.79;84.29;101041.81;5046261;28;45499;-70
2022/01/08 10:51:13;;;;;;;;;12.00;8.50;;;;;8.78;84.65;101037.50;5051940;28;45478;-71
2022/01/08 10:53:52;;;;;;;;;7.50;5.75;;;;;8.69;84.93;101014.19;5047816;28;45476;-71
2022/01/08 10:56:23;;;;;;;;;12.75;6.75;;;;;8.74;85.56;101020.13;5045743;28;45391;-71
2022/01/08 10:58:55;;;;;;;;;5.25;3.00;;;;;8.73;86.34;101015.81;5038612;28;45413;-71
2022/01/08 11:01:47;;;;;;;;;10.25;7.75;;;;;8.75;86.04;101012.22;5040816;28;45335;-71
2022/01/08 11:04:16;;;;;;;;;14.50;8.50;;;;;8.76;85.91;100995.59;5041185;28;45411;-71
2022/01/08 11:06:59;;;;;;;;;10.50;6.50;;;;;8.77;86.10;100993.81;5052780;28;46236;-73
2022/01/08 11:09:26;;;;;;;;;10.25;7.25;;;;;8.77;86.18;100981.59;5060900;28;45644;-72
2022/01/08 11:11:53;;;;;;;;;12.50;7.00;;;;;8.80;86.42;100976.25;5051269;28;45553;-72
2022/01/08 11:14:45;;;;;;;;;14.00;5.75;;;;;8.84;86.47;100966.53;5044832;28;45486;-72
2022/01/08 11:17:29;;;;;;;;;9.75;8.00;;;;;8.80;86.77;100951.81;5038380;28;45933;-75
2022/01/08 11:19:57;;;;;;;;;9.75;5.75;;;;;8.92;86.86;100958.41;5061145;28;45410;-72
2022/01/08 11:22:25;;;;;;;;;6.50;6.25;;;;;8.98;86.94;100947.72;5041277;28;45788;-71
2022/01/08 11:24:55;;;;;;;;;9.00;6.75;;;;;9.02;86.66;100937.09;5051837;28;45572;-71
2022/01/08 11:27:28;;;;;;;;;12.50;8.25;;;;;9.04;86.53;100930.03;5053267;28;46017;-74
2022/01/08 11:30:05;;;;;;;;;7.00;5.00;;;;;9.13;86.36;100916.63;5057414;28;45559;-72
2022/01/08 11:32:30;;;;;;;;;14.25;6.25;;;;;9.18;86.21;100920.84;5054232;28;45577;-72
2022/01/08 11:34:57;;;;;;;;;12.25;6.25;;;;;9.22;86.06;100917.22;5054147;28;45601;-72
2022/01/08 11:37:26;;;;;;;;;8.00;5.00;;;;;9.21;86.13;100898.00;5037709;28;47440;-72
2022/01/08 11:39:52;;;;;;;;;9.00;3.50;;;;;9.26;86.26;100895.22;5043016;28;45843;-71
2022/01/08 11:42:22;;;;;;;;;4.50;3.00;;;;;9.29;85.98;100888.13;5053571;28;45469;-73
2022/01/08 11:44:50;;;;;;;;;6.50;2.75;;;;;9.32;85.99;100888.00;5045637;28;45463;-72
2022/01/08 11:47:18;;;;;;;;;10.00;6.25;;;;;9.39;85.77;100880.75;5050877;28;45410;-72
2022/01/08 11:49:44;;;;;;;;;7.25;5.00;;;;;9.40;85.86;100872.00;5053334;28;45478;-74
2022/01/08 11:52:27;;;;;;;;;7.25;6.00;;;;;9.43;85.70;100850.03;5047098;28;45573;-71